createdAt,value
2016-12-10T00:00:11.606Z,34.48
2016-12-10T00:00:52.144Z,34.48
2016-12-10T00:01:32.665Z,34.48
2016-12-10T00:02:13.192Z,34.58
2016-12-10T00:02:53.740Z,34.58
2016-12-10T00:03:34.246Z,34.58
2016-12-10T00:04:14.762Z,34.48
2016-12-10T00:04:55.286Z,34.48
2016-12-10T00:05:35.816Z,34.48
2016-12-10T00:06:16.384Z,34.38
2016-12-10T00:06:56.894Z,34.38
2016-12-10T00:07:37.465Z,34.29
2016-12-10T00:08:17.965Z,34.38
2016-12-10T00:08:58.504Z,34.48
2016-12-10T00:09:39.063Z,34.38
2016-12-10T00:10:19.616Z,34.29
2016-12-10T00:11:00.170Z,34.29
2016-12-10T00:11:40.678Z,34.29
2016-12-10T00:12:21.193Z,34.38
2016-12-10T00:13:01.718Z,34.29
2016-12-10T00:13:42.265Z,34.38
2016-12-10T00:14:22.773Z,34.48
2016-12-10T00:15:03.306Z,34.48
2016-12-10T00:15:43.820Z,34.38
2016-12-10T00:16:24.363Z,34.58
2016-12-10T00:17:04.872Z,34.58
2016-12-10T00:17:45.386Z,34.29
2016-12-10T00:18:25.927Z,34.58
2016-12-10T00:19:06.507Z,34.38
2016-12-10T00:19:47.097Z,34.48
2016-12-10T00:20:27.602Z,34.38
2016-12-10T00:21:08.116Z,34.38
2016-12-10T00:21:48.650Z,34.38
2016-12-10T00:22:29.180Z,34.48
2016-12-10T00:23:09.705Z,34.38
2016-12-10T00:23:50.214Z,34.48
2016-12-10T00:24:30.769Z,34.38
2016-12-10T00:25:11.326Z,34.29
2016-12-10T00:25:51.820Z,34.38
2016-12-10T00:26:32.348Z,34.58
2016-12-10T00:27:12.866Z,34.38
2016-12-10T00:27:53.408Z,34.38
2016-12-10T00:28:33.929Z,34.38
2016-12-10T00:29:14.483Z,34.38
2016-12-10T00:29:55.003Z,34.38
2016-12-10T00:30:35.554Z,34.19
2016-12-10T00:31:16.092Z,34.29
2016-12-10T00:31:56.676Z,34.38
2016-12-10T00:32:37.182Z,34.48
2016-12-10T00:33:17.718Z,34.38
2016-12-10T00:33:58.224Z,34.29
2016-12-10T00:34:38.765Z,34.19
2016-12-10T00:35:19.288Z,34.19
2016-12-10T00:35:59.788Z,34
2016-12-10T00:36:40.336Z,34.19
2016-12-10T00:37:20.890Z,34.38
2016-12-10T00:38:01.408Z,34.38
2016-12-10T00:38:41.983Z,34.29
2016-12-10T00:39:22.504Z,34.38
2016-12-10T00:40:03.037Z,34.19
2016-12-10T00:40:43.569Z,34.38
2016-12-10T00:41:24.101Z,34.38
2016-12-10T00:42:04.628Z,34.38
2016-12-10T00:42:45.155Z,34.19
2016-12-10T00:43:25.687Z,34.19
2016-12-10T00:44:06.223Z,34.38
2016-12-10T00:44:46.760Z,34.29
2016-12-10T00:45:27.276Z,34.38
2016-12-10T00:46:07.809Z,34.38
2016-12-10T00:46:48.347Z,34.19
2016-12-10T00:47:28.878Z,34.29
2016-12-10T00:48:09.408Z,34
2016-12-10T00:48:49.987Z,34.09
2016-12-10T00:49:30.497Z,34.19
2016-12-10T00:50:11.012Z,34.29
2016-12-10T00:50:51.539Z,34.09
2016-12-10T00:51:32.071Z,34.38
2016-12-10T00:52:12.619Z,34.38
2016-12-10T00:52:53.194Z,34.38
2016-12-10T00:53:33.721Z,34.38
2016-12-10T00:54:14.239Z,34.29
2016-12-10T00:54:54.767Z,34
2016-12-10T00:55:35.308Z,34.19
2016-12-10T00:56:15.851Z,34.09
2016-12-10T00:56:56.380Z,34.38
2016-12-10T00:57:36.954Z,34.09
2016-12-10T00:58:17.450Z,34.09
2016-12-10T00:58:57.988Z,34.19
2016-12-10T00:59:38.520Z,34.09
2016-12-10T01:00:19.048Z,34.09
2016-12-10T01:00:59.594Z,34.09
2016-12-10T01:01:40.065Z,34.09
2016-12-10T01:02:20.589Z,34
2016-12-10T01:03:01.144Z,34.29
2016-12-10T01:03:41.692Z,34
2016-12-10T01:04:22.207Z,34.38
2016-12-10T01:05:02.752Z,34.48
2016-12-10T01:05:43.277Z,34.38
2016-12-10T01:06:23.826Z,34.48
2016-12-10T01:07:04.359Z,34.38
2016-12-10T01:07:44.908Z,34.38
2016-12-10T01:08:25.467Z,34.29
2016-12-10T01:09:06.006Z,34.38
2016-12-10T01:09:46.518Z,34.48
2016-12-10T01:10:27.099Z,34.48
2016-12-10T01:11:07.652Z,34.38
2016-12-10T01:11:48.182Z,34.58
2016-12-10T01:12:28.726Z,34.48
2016-12-10T01:13:09.252Z,34.38
2016-12-10T01:13:49.815Z,34.48
2016-12-10T01:14:30.324Z,34.58
2016-12-10T01:15:10.858Z,34.38
2016-12-10T01:15:51.382Z,34.48
2016-12-10T01:16:31.908Z,34.48
2016-12-10T01:17:12.431Z,34.48
2016-12-10T01:17:52.956Z,34.48
2016-12-10T01:18:33.474Z,34.48
2016-12-10T01:19:13.991Z,34.29
2016-12-10T01:19:54.516Z,34.48
2016-12-10T01:20:35.071Z,34.38
2016-12-10T01:21:15.613Z,34.48
2016-12-10T01:21:56.132Z,34.38
2016-12-10T01:22:36.743Z,34.29
2016-12-10T01:23:17.255Z,34.38
2016-12-10T01:23:57.765Z,34.29
2016-12-10T01:24:38.298Z,34.38
2016-12-10T01:25:18.849Z,34.19
2016-12-10T01:25:59.366Z,34.29
2016-12-10T01:26:39.918Z,34.48
2016-12-10T01:27:20.415Z,34.19
2016-12-10T01:28:00.959Z,34.19
2016-12-10T01:28:41.505Z,34.29
2016-12-10T01:29:22.025Z,34.19
2016-12-10T01:30:02.557Z,33.91
2016-12-10T01:30:43.090Z,34.58
2016-12-10T01:31:23.632Z,34.09
2016-12-10T01:32:04.159Z,34.09
2016-12-10T01:32:44.708Z,34
2016-12-10T01:33:25.238Z,34.19
2016-12-10T01:34:05.767Z,34.19
2016-12-10T01:34:46.268Z,34.09
2016-12-10T01:35:26.815Z,34
2016-12-10T01:36:07.334Z,33.91
2016-12-10T01:36:47.858Z,34
2016-12-10T01:37:28.404Z,34.19
2016-12-10T01:38:08.951Z,34.19
2016-12-10T01:38:49.444Z,34.19
2016-12-10T01:39:29.975Z,34
2016-12-10T01:40:10.516Z,34.29
2016-12-10T01:40:51.084Z,34
2016-12-10T01:41:31.631Z,34.38
2016-12-10T01:42:12.124Z,34.19
2016-12-10T01:42:52.640Z,34.38
2016-12-10T01:43:33.178Z,34.19
2016-12-10T01:44:13.693Z,34.19
2016-12-10T01:44:54.217Z,34.19
2016-12-10T01:45:34.755Z,34.19
2016-12-10T01:46:15.287Z,34.19
2016-12-10T01:46:55.831Z,34
2016-12-10T01:47:36.457Z,34.38
2016-12-10T01:48:16.976Z,34.09
2016-12-10T01:48:57.502Z,34.29
2016-12-10T01:49:38.035Z,34.29
2016-12-10T01:50:18.619Z,34.29
2016-12-10T01:50:59.142Z,34.09
2016-12-10T01:51:39.696Z,34.09
2016-12-10T01:52:20.213Z,34.19
2016-12-10T01:53:00.791Z,34.19
2016-12-10T01:53:41.322Z,34.09
2016-12-10T01:54:21.884Z,34.19
2016-12-10T01:55:02.434Z,34.19
2016-12-10T01:55:43.011Z,33.81
2016-12-10T01:56:23.554Z,34.19
2016-12-10T01:57:04.075Z,34.29
2016-12-10T01:57:44.583Z,33.91
2016-12-10T01:58:25.118Z,34.09
2016-12-10T01:59:05.649Z,34.29
2016-12-10T01:59:46.169Z,34.29
2016-12-10T02:00:26.691Z,34.19
2016-12-10T02:01:07.388Z,34.19
2016-12-10T02:01:47.912Z,34.19
2016-12-10T02:02:28.436Z,34.09
2016-12-10T02:03:08.945Z,34.19
2016-12-10T02:03:49.454Z,34.38
2016-12-10T02:04:30.004Z,34.38
2016-12-10T02:05:10.549Z,34.19
2016-12-10T02:05:51.061Z,34.09
2016-12-10T02:06:31.598Z,34.38
2016-12-10T02:07:12.139Z,34.29
2016-12-10T02:07:52.676Z,34.29
2016-12-10T02:08:33.219Z,34.19
2016-12-10T02:09:13.733Z,34.29
2016-12-10T02:09:54.277Z,34.29
2016-12-10T02:10:34.803Z,34.29
2016-12-10T02:11:15.316Z,34.09
2016-12-10T02:11:55.840Z,34.29
2016-12-10T02:12:36.354Z,34.19
2016-12-10T02:13:16.892Z,34.09
2016-12-10T02:13:57.391Z,34.19
2016-12-10T02:14:37.923Z,34.29
2016-12-10T02:15:18.446Z,34.29
2016-12-10T02:15:58.971Z,34.29
2016-12-10T02:16:39.477Z,34.29
2016-12-10T02:17:20.009Z,34.29
2016-12-10T02:18:00.531Z,34.29
2016-12-10T02:18:41.100Z,34.29
2016-12-10T02:19:21.648Z,34.29
2016-12-10T02:20:02.192Z,34.19
2016-12-10T02:20:42.739Z,34.19
2016-12-10T02:21:23.277Z,34.19
2016-12-10T02:22:03.837Z,34.29
2016-12-10T02:22:44.379Z,34.19
2016-12-10T02:23:25.001Z,34.19
2016-12-10T02:24:05.518Z,34.29
2016-12-10T02:24:46.052Z,34.19
2016-12-10T02:25:26.598Z,34.19
2016-12-10T02:26:07.168Z,34.19
2016-12-10T02:26:47.703Z,34.29
2016-12-10T02:27:28.231Z,34.29
2016-12-10T02:28:08.745Z,34.38
2016-12-10T02:28:49.263Z,34.38
2016-12-10T02:29:29.794Z,34.38
2016-12-10T02:30:10.368Z,34.29
2016-12-10T02:30:50.887Z,34.48
2016-12-10T02:31:31.463Z,34.29
2016-12-10T02:32:11.997Z,34.29
2016-12-10T02:32:52.500Z,33.91
2016-12-10T02:33:33.058Z,34.19
2016-12-10T02:34:13.575Z,33.91
2016-12-10T02:34:54.193Z,34.29
2016-12-10T02:35:34.716Z,33.81
2016-12-10T02:36:15.269Z,34.29
2016-12-10T02:36:55.793Z,34.29
2016-12-10T02:37:36.311Z,34.29
2016-12-10T02:38:16.845Z,34.29
2016-12-10T02:38:57.377Z,34.38
2016-12-10T02:39:37.891Z,34.38
2016-12-10T02:40:18.614Z,34
2016-12-10T02:40:59.206Z,34.38
2016-12-10T02:41:39.790Z,34.48
2016-12-10T02:42:20.338Z,33.91
2016-12-10T02:43:00.904Z,33.91
2016-12-10T02:43:41.419Z,34.38
2016-12-10T02:44:21.918Z,34.09
2016-12-10T02:45:02.451Z,34.09
2016-12-10T02:45:42.977Z,34.09
2016-12-10T02:46:23.531Z,34.48
2016-12-10T02:47:04.031Z,34.48
2016-12-10T02:47:44.554Z,33.91
2016-12-10T02:48:25.114Z,34
2016-12-10T02:49:05.643Z,34.09
2016-12-10T02:49:46.179Z,33.81
2016-12-10T02:50:26.719Z,34.09
2016-12-10T02:51:07.249Z,34.48
2016-12-10T02:51:47.816Z,34
2016-12-10T02:52:28.325Z,34.09
2016-12-10T02:53:08.888Z,34.29
2016-12-10T02:53:49.413Z,34.09
2016-12-10T02:54:29.927Z,34.09
2016-12-10T02:55:10.445Z,34.09
2016-12-10T02:55:50.942Z,34.09
2016-12-10T02:56:31.457Z,34.09
2016-12-10T02:57:11.991Z,34.09
2016-12-10T02:57:52.533Z,34
2016-12-10T02:58:33.066Z,34.09
2016-12-10T02:59:13.592Z,34.09
2016-12-10T02:59:54.132Z,34.48
2016-12-10T03:00:34.654Z,33.91
2016-12-10T03:01:15.177Z,33.91
2016-12-10T03:01:55.708Z,34
2016-12-10T03:02:36.273Z,34.38
2016-12-10T03:03:16.797Z,34.09
2016-12-10T03:03:57.310Z,33.81
2016-12-10T03:04:37.854Z,33.91
2016-12-10T03:05:18.364Z,34
2016-12-10T03:05:58.891Z,33.81
2016-12-10T03:06:39.429Z,34
2016-12-10T03:07:19.973Z,34
2016-12-10T03:08:00.535Z,34
2016-12-10T03:08:41.176Z,34
2016-12-10T03:09:21.699Z,33.81
2016-12-10T03:10:02.226Z,34
2016-12-10T03:10:42.768Z,34
2016-12-10T03:11:23.288Z,33.81
2016-12-10T03:12:03.826Z,34
2016-12-10T03:12:44.330Z,33.91
2016-12-10T03:13:24.895Z,34
2016-12-10T03:14:05.412Z,33.91
2016-12-10T03:14:45.978Z,33.91
2016-12-10T03:15:26.484Z,33.81
2016-12-10T03:16:07.025Z,33.91
2016-12-10T03:16:47.543Z,34
2016-12-10T03:17:28.064Z,34
2016-12-10T03:18:08.581Z,34
2016-12-10T03:18:49.118Z,33.81
2016-12-10T03:19:29.639Z,33.91
2016-12-10T03:20:10.203Z,33.91
2016-12-10T03:20:50.719Z,33.91
2016-12-10T03:21:31.255Z,33.91
2016-12-10T03:22:11.809Z,34
2016-12-10T03:22:52.353Z,33.81
2016-12-10T03:23:32.867Z,33.91
2016-12-10T03:24:13.386Z,34
2016-12-10T03:24:53.913Z,33.91
2016-12-10T03:25:34.474Z,33.91
2016-12-10T03:26:14.973Z,33.91
2016-12-10T03:26:55.507Z,33.91
2016-12-10T03:27:36.063Z,33.61
2016-12-10T03:28:16.605Z,33.91
2016-12-10T03:28:57.151Z,33.91
2016-12-10T03:29:37.713Z,33.61
2016-12-10T03:30:18.239Z,33.91
2016-12-10T03:30:58.770Z,33.91
2016-12-10T03:31:39.282Z,33.81
2016-12-10T03:32:19.816Z,33.51
2016-12-10T03:33:00.375Z,33.61
2016-12-10T03:33:40.888Z,33.71
2016-12-10T03:34:21.399Z,33.61
2016-12-10T03:35:01.909Z,33.51
2016-12-10T03:35:42.423Z,33.61
2016-12-10T03:36:22.971Z,33.81
2016-12-10T03:37:03.519Z,33.61
2016-12-10T03:37:44.067Z,33.61
2016-12-10T03:38:24.597Z,33.61
2016-12-10T03:39:05.141Z,33.51
2016-12-10T03:39:45.655Z,33.61
2016-12-10T03:40:26.194Z,33.61
2016-12-10T03:41:06.747Z,33.81
2016-12-10T03:41:47.280Z,33.51
2016-12-10T03:42:27.855Z,33.51
2016-12-10T03:43:08.374Z,33.91
2016-12-10T03:43:48.950Z,33.71
2016-12-10T03:44:29.464Z,33.91
2016-12-10T03:45:09.984Z,33.81
2016-12-10T03:45:50.534Z,33.91
2016-12-10T03:46:31.085Z,33.91
2016-12-10T03:47:11.608Z,33.51
2016-12-10T03:47:52.127Z,34
2016-12-10T03:48:32.668Z,33.81
2016-12-10T03:49:13.191Z,33.71
2016-12-10T03:49:53.737Z,33.51
2016-12-10T03:50:34.252Z,33.81
2016-12-10T03:51:14.762Z,33.71
2016-12-10T03:51:55.277Z,33.71
2016-12-10T03:52:35.835Z,33.61
2016-12-10T03:53:16.362Z,33.71
2016-12-10T03:53:56.897Z,33.81
2016-12-10T03:54:37.390Z,33.71
2016-12-10T03:55:17.918Z,33.81
2016-12-10T03:55:58.415Z,33.81
2016-12-10T03:56:38.923Z,33.81
2016-12-10T03:57:19.442Z,33.71
2016-12-10T03:57:59.962Z,33.71
2016-12-10T03:58:40.487Z,33.81
2016-12-10T03:59:21.000Z,33.91
2016-12-10T04:00:01.502Z,33.81
2016-12-10T04:00:42.013Z,33.91
2016-12-10T04:01:22.540Z,33.91
2016-12-10T04:02:03.074Z,33.81
2016-12-10T04:02:43.593Z,33.81
2016-12-10T04:03:24.142Z,33.81
2016-12-10T04:04:04.662Z,33.91
2016-12-10T04:04:45.191Z,33.81
2016-12-10T04:05:25.745Z,33.81
2016-12-10T04:06:06.286Z,34
2016-12-10T04:06:46.817Z,33.81
2016-12-10T04:07:27.348Z,33.91
2016-12-10T04:08:07.868Z,33.81
2016-12-10T04:08:48.443Z,33.71
2016-12-10T04:09:28.962Z,33.91
2016-12-10T04:10:09.525Z,33.81
2016-12-10T04:10:50.050Z,33.81
2016-12-10T04:11:30.560Z,33.81
2016-12-10T04:12:11.071Z,33.81
2016-12-10T04:12:51.592Z,33.91
2016-12-10T04:13:32.118Z,33.91
2016-12-10T04:14:12.621Z,33.71
2016-12-10T04:14:53.186Z,33.81
2016-12-10T04:15:33.710Z,33.71
2016-12-10T04:16:14.261Z,33.91
2016-12-10T04:16:54.782Z,33.71
2016-12-10T04:17:35.328Z,33.71
2016-12-10T04:18:15.869Z,33.91
2016-12-10T04:18:56.379Z,33.91
2016-12-10T04:19:36.905Z,33.71
2016-12-10T04:20:17.416Z,33.91
2016-12-10T04:20:57.934Z,33.81
2016-12-10T04:21:38.448Z,33.81
2016-12-10T04:22:18.990Z,33.81
2016-12-10T04:22:59.519Z,33.91
2016-12-10T04:23:40.049Z,33.91
2016-12-10T04:24:20.555Z,33.91
2016-12-10T04:25:01.109Z,33.91
2016-12-10T04:25:41.660Z,33.91
2016-12-10T04:26:22.180Z,33.71
2016-12-10T04:27:02.707Z,33.91
2016-12-10T04:27:43.225Z,33.71
2016-12-10T04:28:23.803Z,33.71
2016-12-10T04:29:04.281Z,33.71
2016-12-10T04:29:44.821Z,33.61
2016-12-10T04:30:25.327Z,33.91
2016-12-10T04:31:05.881Z,33.71
2016-12-10T04:31:46.372Z,33.71
2016-12-10T04:32:26.892Z,33.71
2016-12-10T04:33:07.415Z,33.71
2016-12-10T04:33:47.941Z,34.09
2016-12-10T04:34:28.465Z,33.71
2016-12-10T04:35:08.983Z,34
2016-12-10T04:35:49.486Z,33.81
2016-12-10T04:36:30.008Z,33.81
2016-12-10T04:37:10.542Z,34.09
2016-12-10T04:37:51.070Z,34
2016-12-10T04:38:31.583Z,33.91
2016-12-10T04:39:12.110Z,33.91
2016-12-10T04:39:52.663Z,33.81
2016-12-10T04:40:33.190Z,34
2016-12-10T04:41:13.710Z,33.81
2016-12-10T04:41:54.255Z,33.81
2016-12-10T04:42:34.778Z,33.81
2016-12-10T04:43:15.332Z,33.81
2016-12-10T04:43:55.899Z,33.81
2016-12-10T04:44:36.401Z,33.81
2016-12-10T04:45:16.924Z,34
2016-12-10T04:45:57.454Z,33.71
2016-12-10T04:46:37.984Z,33.81
2016-12-10T04:47:18.521Z,33.81
2016-12-10T04:47:59.062Z,33.81
2016-12-10T04:48:39.572Z,33.81
2016-12-10T04:49:20.088Z,33.91
2016-12-10T04:50:00.636Z,33.81
2016-12-10T04:50:41.189Z,33.91
2016-12-10T04:51:21.737Z,33.71
2016-12-10T04:52:02.258Z,33.91
2016-12-10T04:52:42.797Z,33.91
2016-12-10T04:53:23.321Z,33.81
2016-12-10T04:54:03.860Z,33.81
2016-12-10T04:54:44.368Z,33.81
2016-12-10T04:55:24.901Z,33.71
2016-12-10T04:56:05.407Z,33.91
2016-12-10T04:56:45.950Z,33.81
2016-12-10T04:57:26.510Z,33.91
2016-12-10T04:58:07.058Z,33.81
2016-12-10T04:58:47.695Z,33.81
2016-12-10T04:59:28.199Z,33.81
2016-12-10T05:00:08.724Z,33.71
2016-12-10T05:00:49.249Z,33.71
2016-12-10T05:01:29.776Z,33.51
2016-12-10T05:02:10.305Z,34.09
2016-12-10T05:02:50.824Z,33.51
2016-12-10T05:03:31.348Z,33.51
2016-12-10T05:04:11.864Z,33.51
2016-12-10T05:04:52.410Z,33.42
2016-12-10T05:05:32.938Z,33.42
2016-12-10T05:06:13.473Z,34.09
2016-12-10T05:06:54.017Z,33.51
2016-12-10T05:07:34.527Z,33.51
2016-12-10T05:08:15.050Z,33.33
2016-12-10T05:08:55.548Z,33.42
2016-12-10T05:09:36.102Z,33.71
2016-12-10T05:10:16.620Z,33.71
2016-12-10T05:10:57.132Z,33.23
2016-12-10T05:11:37.648Z,33.23
2016-12-10T05:12:18.177Z,33.23
2016-12-10T05:12:58.729Z,33.42
2016-12-10T05:13:39.246Z,33.33
2016-12-10T05:14:19.778Z,33.23
2016-12-10T05:15:00.295Z,33.33
2016-12-10T05:15:40.804Z,33.23
2016-12-10T05:16:21.324Z,33.23
2016-12-10T05:17:01.831Z,33.71
2016-12-10T05:17:42.348Z,33.71
2016-12-10T05:18:22.873Z,33.23
2016-12-10T05:19:03.416Z,33.33
2016-12-10T05:19:43.959Z,33.42
2016-12-10T05:20:24.490Z,33.51
2016-12-10T05:21:05.013Z,33.42
2016-12-10T05:21:45.549Z,33.42
2016-12-10T05:22:26.071Z,33.33
2016-12-10T05:23:06.587Z,33.13
2016-12-10T05:23:47.095Z,33.23
2016-12-10T05:24:27.613Z,33.23
2016-12-10T05:25:08.164Z,33.23
2016-12-10T05:25:48.694Z,33.23
2016-12-10T05:26:29.248Z,33.13
2016-12-10T05:27:09.745Z,33.13
2016-12-10T05:27:50.270Z,33.23
2016-12-10T05:28:30.817Z,33.71
2016-12-10T05:29:11.359Z,33.13
2016-12-10T05:29:51.881Z,33.23
2016-12-10T05:30:32.394Z,33.33
2016-12-10T05:31:12.911Z,33.42
2016-12-10T05:31:53.448Z,33.23
2016-12-10T05:32:33.978Z,33.23
2016-12-10T05:33:14.490Z,33.23
2016-12-10T05:33:55.015Z,33.23
2016-12-10T05:34:35.540Z,33.23
2016-12-10T05:35:16.071Z,33.33
2016-12-10T05:35:56.572Z,33.33
2016-12-10T05:36:37.087Z,33.23
2016-12-10T05:37:17.626Z,33.51
2016-12-10T05:37:58.174Z,33.51
2016-12-10T05:38:38.717Z,33.42
2016-12-10T05:39:19.241Z,33.42
2016-12-10T05:39:59.787Z,33.23
2016-12-10T05:40:40.316Z,33.51
2016-12-10T05:41:20.855Z,33.61
2016-12-10T05:42:01.384Z,33.42
2016-12-10T05:42:41.986Z,33.51
2016-12-10T05:43:22.532Z,33.13
2016-12-10T05:44:03.063Z,33.51
2016-12-10T05:44:43.585Z,33.33
2016-12-10T05:45:24.108Z,33.23
2016-12-10T05:46:04.628Z,33.33
2016-12-10T05:46:45.165Z,33.33
2016-12-10T05:47:25.679Z,33.23
2016-12-10T05:48:06.213Z,33.33
2016-12-10T05:48:46.717Z,33.33
2016-12-10T05:49:27.240Z,33.23
2016-12-10T05:50:07.777Z,33.23
2016-12-10T05:50:48.284Z,33.23
2016-12-10T05:51:28.811Z,33.23
2016-12-10T05:52:09.350Z,33.42
2016-12-10T05:52:49.861Z,33.42
2016-12-10T05:53:30.397Z,33.23
2016-12-10T05:54:10.917Z,33.23
2016-12-10T05:54:51.477Z,33.42
2016-12-10T05:55:32.007Z,33.42
2016-12-10T05:56:12.512Z,33.33
2016-12-10T05:56:53.053Z,33.23
2016-12-10T05:57:33.573Z,33.42
2016-12-10T05:58:14.094Z,33.42
2016-12-10T05:58:54.646Z,33.33
2016-12-10T05:59:35.207Z,33.33
2016-12-10T06:00:15.710Z,33.33
2016-12-10T06:00:56.271Z,33.42
2016-12-10T06:01:36.804Z,33.33
2016-12-10T06:02:17.338Z,33.33
2016-12-10T06:02:57.853Z,33.33
2016-12-10T06:03:38.365Z,33.13
2016-12-10T06:04:18.922Z,33.03
2016-12-10T06:04:59.450Z,33.33
2016-12-10T06:05:40.007Z,33.33
2016-12-10T06:06:20.545Z,33.13
2016-12-10T06:07:01.102Z,33.03
2016-12-10T06:07:41.628Z,33.23
2016-12-10T06:08:22.163Z,33.13
2016-12-10T06:09:02.716Z,32.94
2016-12-10T06:09:43.263Z,33.23
2016-12-10T06:10:23.817Z,33.13
2016-12-10T06:11:04.329Z,33.03
2016-12-10T06:11:44.840Z,33.13
2016-12-10T06:12:25.388Z,33.23
2016-12-10T06:13:05.928Z,32.94
2016-12-10T06:13:46.464Z,32.84
2016-12-10T06:14:27.003Z,33.13
2016-12-10T06:15:07.490Z,33.03
2016-12-10T06:15:48.029Z,33.13
2016-12-10T06:16:28.542Z,33.33
2016-12-10T06:17:09.061Z,33.03
2016-12-10T06:17:49.574Z,32.84
2016-12-10T06:18:30.091Z,33.23
2016-12-10T06:19:10.602Z,33.13
2016-12-10T06:19:51.150Z,33.13
2016-12-10T06:20:31.703Z,33.03
2016-12-10T06:21:12.249Z,33.03
2016-12-10T06:21:52.811Z,33.03
2016-12-10T06:22:33.345Z,33.03
2016-12-10T06:23:13.854Z,33.03
2016-12-10T06:23:54.404Z,33.03
2016-12-10T06:24:34.910Z,33.03
2016-12-10T06:25:15.431Z,32.94
2016-12-10T06:25:55.977Z,33.13
2016-12-10T06:26:36.506Z,32.94
2016-12-10T06:27:17.052Z,32.94
2016-12-10T06:27:57.584Z,32.94
2016-12-10T06:28:38.140Z,32.94
2016-12-10T06:29:18.658Z,32.94
2016-12-10T06:29:59.199Z,33.03
2016-12-10T06:30:39.739Z,33.03
2016-12-10T06:31:20.254Z,33.03
2016-12-10T06:32:00.762Z,33.13
2016-12-10T06:32:41.280Z,33.03
2016-12-10T06:33:21.791Z,32.94
2016-12-10T06:34:02.330Z,33.13
2016-12-10T06:34:42.860Z,33.03
2016-12-10T06:35:23.431Z,33.03
2016-12-10T06:36:03.973Z,33.03
2016-12-10T06:36:44.507Z,33.13
2016-12-10T06:37:25.072Z,33.33
2016-12-10T06:38:05.586Z,33.13
2016-12-10T06:38:46.128Z,33.13
2016-12-10T06:39:26.657Z,33.03
2016-12-10T06:40:07.176Z,33.13
2016-12-10T06:40:47.707Z,33.03
2016-12-10T06:41:28.229Z,32.94
2016-12-10T06:42:08.726Z,33.03
2016-12-10T06:42:49.262Z,32.94
2016-12-10T06:43:29.795Z,32.94
2016-12-10T06:44:10.336Z,33.03
2016-12-10T06:44:50.874Z,32.94
2016-12-10T06:45:31.408Z,32.94
2016-12-10T06:46:11.965Z,32.94
2016-12-10T06:46:52.500Z,32.94
2016-12-10T06:47:33.021Z,32.94
2016-12-10T06:48:13.555Z,32.94
2016-12-10T06:48:54.102Z,32.94
2016-12-10T06:49:34.641Z,32.94
2016-12-10T06:50:15.177Z,32.94
2016-12-10T06:50:55.697Z,32.94
2016-12-10T06:51:36.209Z,32.94
2016-12-10T06:52:16.759Z,32.94
2016-12-10T06:52:57.294Z,32.94
2016-12-10T06:53:37.819Z,32.84
2016-12-10T06:54:18.355Z,32.94
2016-12-10T06:54:58.910Z,32.94
2016-12-10T06:55:39.420Z,32.94
2016-12-10T06:56:19.956Z,32.94
2016-12-10T06:57:00.513Z,32.94
2016-12-10T06:57:41.047Z,32.84
2016-12-10T06:58:21.578Z,32.94
2016-12-10T06:59:02.105Z,32.94
2016-12-10T06:59:42.633Z,32.84
2016-12-10T07:00:23.177Z,32.94
2016-12-10T07:01:03.696Z,32.94
2016-12-10T07:01:44.217Z,32.94
2016-12-10T07:02:24.751Z,32.84
2016-12-10T07:03:05.300Z,32.84
2016-12-10T07:03:45.823Z,32.84
2016-12-10T07:04:26.351Z,32.75
2016-12-10T07:05:06.865Z,32.75
2016-12-10T07:05:47.392Z,32.75
2016-12-10T07:06:27.914Z,32.75
2016-12-10T07:07:08.453Z,32.75
2016-12-10T07:07:48.998Z,32.75
2016-12-10T07:08:29.506Z,32.94
2016-12-10T07:09:10.028Z,32.94
2016-12-10T07:09:50.545Z,33.03
2016-12-10T07:10:31.110Z,32.94
2016-12-10T07:11:11.608Z,32.94
2016-12-10T07:11:52.144Z,32.84
2016-12-10T07:12:32.665Z,32.94
2016-12-10T07:13:13.168Z,32.84
2016-12-10T07:13:53.671Z,33.03
2016-12-10T07:14:34.199Z,32.84
2016-12-10T07:15:14.739Z,32.84
2016-12-10T07:15:55.313Z,32.84
2016-12-10T07:16:35.857Z,32.84
2016-12-10T07:17:16.371Z,32.56
2016-12-10T07:17:56.883Z,32.75
2016-12-10T07:18:37.411Z,32.56
2016-12-10T07:19:17.929Z,32.56
2016-12-10T07:19:58.461Z,32.75
2016-12-10T07:20:38.988Z,32.84
2016-12-10T07:21:19.531Z,32.75
2016-12-10T07:22:00.094Z,32.65
2016-12-10T07:22:40.606Z,32.75
2016-12-10T07:23:21.142Z,32.94
2016-12-10T07:24:01.646Z,32.84
2016-12-10T07:24:42.186Z,32.94
2016-12-10T07:25:22.701Z,32.94
2016-12-10T07:26:03.259Z,32.84
2016-12-10T07:26:43.770Z,32.65
2016-12-10T07:27:24.301Z,33.03
2016-12-10T07:28:04.840Z,32.94
2016-12-10T07:28:45.363Z,32.56
2016-12-10T07:29:25.902Z,32.75
2016-12-10T07:30:06.465Z,32.56
2016-12-10T07:30:46.935Z,32.65
2016-12-10T07:31:27.465Z,32.56
2016-12-10T07:32:07.971Z,32.46
2016-12-10T07:32:48.513Z,32.75
2016-12-10T07:33:29.021Z,32.75
2016-12-10T07:34:09.557Z,32.65
2016-12-10T07:34:50.126Z,32.75
2016-12-10T07:35:30.629Z,32.56
2016-12-10T07:36:11.165Z,32.65
2016-12-10T07:36:51.724Z,32.84
2016-12-10T07:37:32.237Z,32.84
2016-12-10T07:38:12.763Z,32.56
2016-12-10T07:38:53.303Z,32.75
2016-12-10T07:39:33.860Z,32.84
2016-12-10T07:40:14.391Z,32.56
2016-12-10T07:40:54.947Z,32.65
2016-12-10T07:41:35.476Z,32.84
2016-12-10T07:42:16.021Z,32.84
2016-12-10T07:42:56.544Z,32.84
2016-12-10T07:43:37.096Z,32.84
2016-12-10T07:44:18.444Z,32.94
2016-12-10T07:44:58.977Z,32.65
2016-12-10T07:45:39.495Z,32.94
2016-12-10T07:46:20.024Z,32.65
2016-12-10T07:47:00.523Z,32.94
2016-12-10T07:47:41.059Z,32.65
2016-12-10T07:48:21.579Z,32.65
2016-12-10T07:49:02.079Z,32.65
2016-12-10T07:49:42.586Z,32.94
2016-12-10T07:50:23.076Z,32.65
2016-12-10T07:51:03.648Z,32.94
2016-12-10T07:51:44.158Z,32.94
2016-12-10T07:52:24.681Z,32.75
2016-12-10T07:53:05.228Z,32.65
2016-12-10T07:53:45.744Z,32.94
2016-12-10T07:54:26.243Z,32.84
2016-12-10T07:55:06.766Z,32.94
2016-12-10T07:55:47.297Z,32.75
2016-12-10T07:56:27.829Z,32.65
2016-12-10T07:57:08.369Z,32.65
2016-12-10T07:57:48.863Z,32.84
2016-12-10T07:58:29.396Z,32.65
2016-12-10T07:59:09.952Z,32.84
2016-12-10T07:59:50.493Z,32.65
2016-12-10T08:00:31.016Z,32.65
2016-12-10T08:01:11.526Z,32.84
2016-12-10T08:01:52.048Z,32.84
2016-12-10T08:02:32.555Z,32.84
2016-12-10T08:03:13.067Z,32.94
2016-12-10T08:03:53.597Z,32.84
2016-12-10T08:04:34.107Z,32.56
2016-12-10T08:05:14.598Z,32.75
2016-12-10T08:05:55.134Z,32.56
2016-12-10T08:06:35.640Z,32.56
2016-12-10T08:07:16.158Z,32.65
2016-12-10T08:07:56.645Z,32.65
2016-12-10T08:08:37.145Z,32.65
2016-12-10T08:09:17.720Z,32.65
2016-12-10T08:09:58.243Z,32.65
2016-12-10T08:10:38.758Z,32.84
2016-12-10T08:11:19.298Z,32.56
2016-12-10T08:11:59.827Z,32.56
2016-12-10T08:12:40.348Z,32.75
2016-12-10T08:13:20.865Z,32.56
2016-12-10T08:14:01.375Z,32.56
2016-12-10T08:14:41.876Z,32.56
2016-12-10T08:15:22.406Z,32.75
2016-12-10T08:16:02.873Z,32.75
2016-12-10T08:16:43.367Z,32.65
2016-12-10T08:17:23.934Z,32.84
2016-12-10T08:18:04.456Z,32.84
2016-12-10T08:18:45.014Z,32.84
2016-12-10T08:19:25.598Z,32.84
2016-12-10T08:20:06.087Z,32.75
2016-12-10T08:20:46.598Z,32.75
2016-12-10T08:21:27.111Z,32.36
2016-12-10T08:22:07.616Z,32.56
2016-12-10T08:22:48.165Z,32.84
2016-12-10T08:23:28.679Z,32.56
2016-12-10T08:24:09.187Z,32.84
2016-12-10T08:24:49.675Z,32.75
2016-12-10T08:25:30.207Z,32.94
2016-12-10T08:26:10.741Z,32.75
2016-12-10T08:26:51.242Z,32.75
2016-12-10T08:27:31.760Z,32.75
2016-12-10T08:28:12.258Z,32.56
2016-12-10T08:28:52.802Z,32.75
2016-12-10T08:29:33.317Z,32.65
2016-12-10T08:30:13.837Z,32.75
2016-12-10T08:30:54.360Z,32.75
2016-12-10T08:31:34.872Z,32.65
2016-12-10T08:32:15.397Z,32.75
2016-12-10T08:32:55.934Z,32.94
2016-12-10T08:33:36.443Z,32.84
2016-12-10T08:34:16.952Z,32.84
2016-12-10T08:34:57.456Z,32.94
2016-12-10T08:35:38.001Z,32.94
2016-12-10T08:36:18.493Z,32.84
2016-12-10T08:36:59.029Z,32.94
2016-12-10T08:37:39.573Z,32.94
2016-12-10T08:38:20.078Z,32.75
2016-12-10T08:39:00.598Z,32.84
2016-12-10T08:39:41.131Z,32.75
2016-12-10T08:40:21.750Z,32.75
2016-12-10T08:42:40.904Z,32.94
2016-12-10T08:43:21.403Z,32.84
2016-12-10T08:44:01.919Z,32.84
2016-12-10T08:44:42.505Z,32.84
2016-12-10T08:45:23.051Z,32.94
2016-12-10T08:46:03.618Z,32.65